createdAt,value
2023-01-26T00:00:33.323Z,573.00
2023-01-26T00:01:33.283Z,560.00
2023-01-26T00:02:33.356Z,568.00
2023-01-26T00:03:34.206Z,571.00
2023-01-26T00:04:33.356Z,568.00
2023-01-26T00:05:33.340Z,560.00
2023-01-26T00:06:33.437Z,574.00
2023-01-26T00:07:33.536Z,574.00
2023-01-26T00:08:33.596Z,575.00
2023-01-26T00:09:33.706Z,573.00
2023-01-26T00:10:33.820Z,577.00
2023-01-26T00:11:33.984Z,581.00
2023-01-26T00:12:33.880Z,566.00
2023-01-26T00:13:33.945Z,572.00
2023-01-26T00:14:33.916Z,571.00
2023-01-26T00:15:34.047Z,578.00
2023-01-26T00:16:34.151Z,576.00
2023-01-26T00:17:34.142Z,576.00
2023-01-26T00:18:34.134Z,573.00
2023-01-26T00:19:34.182Z,578.00
2023-01-26T00:20:34.328Z,570.00
2023-01-26T00:21:34.501Z,573.00
2023-01-26T00:22:34.586Z,581.00
2023-01-26T00:23:34.494Z,578.00
2023-01-26T00:24:34.495Z,573.00
2023-01-26T00:25:34.539Z,579.00
2023-01-26T00:26:34.717Z,575.00
2023-01-26T00:27:34.754Z,577.00
2023-01-26T00:28:34.859Z,576.00
2023-01-26T00:29:34.972Z,579.00
2023-01-26T00:30:35.073Z,578.00
2023-01-26T00:31:35.199Z,573.00
2023-01-26T00:32:35.271Z,582.00
2023-01-26T00:33:35.256Z,575.00
2023-01-26T00:34:35.280Z,573.00
2023-01-26T00:35:35.375Z,578.00
2023-01-26T00:36:35.422Z,580.00
2023-01-26T00:37:35.524Z,581.00
2023-01-26T00:38:35.481Z,581.00
2023-01-26T00:39:35.507Z,560.00
2023-01-26T00:40:35.539Z,570.00
2023-01-26T00:41:35.665Z,563.00
2023-01-26T00:42:35.738Z,562.00
2023-01-26T00:43:35.799Z,566.00
2023-01-26T00:44:35.943Z,564.00
2023-01-26T00:45:35.997Z,578.00
2023-01-26T00:46:36.043Z,578.00
2023-01-26T00:47:36.027Z,571.00
2023-01-26T00:48:36.071Z,561.00
2023-01-26T00:49:36.191Z,553.00
2023-01-26T00:50:36.240Z,573.00
2023-01-26T00:51:36.368Z,569.00
2023-01-26T00:52:36.335Z,578.00
2023-01-26T00:53:36.307Z,578.00
2023-01-26T00:54:36.431Z,558.00
2023-01-26T00:55:36.522Z,580.00
2023-01-26T00:56:36.480Z,574.00
2023-01-26T00:57:36.472Z,559.00
2023-01-26T00:58:36.575Z,575.00
2023-01-26T00:59:36.692Z,563.00
2023-01-26T01:00:36.710Z,559.00
2023-01-26T01:01:36.752Z,563.00
2023-01-26T01:02:36.708Z,562.00
2023-01-26T01:03:36.827Z,556.00
2023-01-26T01:04:36.840Z,553.00
2023-01-26T01:05:36.844Z,558.00
2023-01-26T01:06:36.917Z,557.00
2023-01-26T01:07:37.019Z,569.00
2023-01-26T01:08:37.087Z,563.00
2023-01-26T01:09:37.209Z,561.00
2023-01-26T01:10:37.199Z,556.00
2023-01-26T01:11:37.217Z,552.00
2023-01-26T01:12:37.253Z,556.00
2023-01-26T01:13:37.382Z,558.00
2023-01-26T01:14:37.336Z,570.00
2023-01-26T01:15:37.320Z,563.00
2023-01-26T01:16:37.435Z,553.00
2023-01-26T01:17:37.502Z,554.00
2023-01-26T01:18:37.468Z,548.00
2023-01-26T01:19:37.454Z,559.00
2023-01-26T01:20:37.521Z,558.00
2023-01-26T01:21:37.625Z,552.00
2023-01-26T01:22:37.736Z,555.00
2023-01-26T01:23:37.816Z,553.00
2023-01-26T01:24:37.870Z,556.00
2023-01-26T01:25:37.859Z,571.00
2023-01-26T01:26:37.912Z,557.00
2023-01-26T01:27:38.012Z,555.00
2023-01-26T01:28:38.077Z,557.00
2023-01-26T01:29:38.182Z,560.00
2023-01-26T01:30:38.188Z,552.00
2023-01-26T01:31:38.251Z,555.00
2023-01-26T01:32:38.269Z,554.00
2023-01-26T01:33:38.355Z,554.00
2023-01-26T01:34:38.430Z,553.00
2023-01-26T01:35:38.483Z,570.00
2023-01-26T01:36:38.438Z,566.00
2023-01-26T01:37:38.439Z,556.00
2023-01-26T01:38:38.455Z,556.00
2023-01-26T01:39:38.509Z,556.00
2023-01-26T01:40:38.616Z,559.00
2023-01-26T01:41:38.736Z,557.00
2023-01-26T01:42:38.787Z,563.00
2023-01-26T01:43:38.895Z,554.00
2023-01-26T01:44:39.016Z,562.00
2023-01-26T01:45:39.084Z,558.00
2023-01-26T01:46:39.093Z,556.00
2023-01-26T01:47:39.055Z,552.00
2023-01-26T01:48:39.130Z,556.00
2023-01-26T01:49:39.189Z,560.00
2023-01-26T01:50:39.303Z,559.00
2023-01-26T01:51:39.365Z,579.00
2023-01-26T01:52:39.467Z,586.00
2023-01-26T01:53:39.484Z,586.00
2023-01-26T01:54:39.504Z,577.00
2023-01-26T01:55:39.598Z,574.00
2023-01-26T01:56:39.611Z,579.00
2023-01-26T01:57:39.684Z,584.00
2023-01-26T01:58:39.768Z,585.00
2023-01-26T01:59:39.841Z,587.00
2023-01-26T02:00:39.929Z,590.00
2023-01-26T02:01:40.047Z,593.00
2023-01-26T02:02:40.005Z,600.00
2023-01-26T02:03:40.061Z,602.00
2023-01-26T02:04:40.076Z,601.00
2023-01-26T02:05:40.135Z,607.00
2023-01-26T02:06:40.234Z,607.00
2023-01-26T02:07:40.242Z,608.00
2023-01-26T02:08:40.305Z,607.00
2023-01-26T02:09:40.366Z,614.00
2023-01-26T02:10:40.416Z,614.00
2023-01-26T02:11:40.472Z,613.00
2023-01-26T02:12:40.528Z,616.00
2023-01-26T02:13:40.540Z,618.00
2023-01-26T02:14:40.599Z,622.00
2023-01-26T02:15:40.653Z,621.00
2023-01-26T02:16:40.650Z,620.00
2023-01-26T02:17:40.685Z,621.00
2023-01-26T02:18:40.724Z,622.00
2023-01-26T02:19:40.764Z,626.00
2023-01-26T02:20:40.777Z,628.00
2023-01-26T02:21:40.832Z,628.00
2023-01-26T02:22:40.859Z,624.00
2023-01-26T02:23:40.863Z,626.00
2023-01-26T02:24:40.934Z,633.00
2023-01-26T02:25:40.930Z,628.00
2023-01-26T02:26:40.938Z,632.00
2023-01-26T02:27:40.964Z,634.00
2023-01-26T02:28:40.966Z,630.00
2023-01-26T02:29:40.959Z,636.00
2023-01-26T02:30:41.025Z,636.00
2023-01-26T02:31:41.036Z,631.00
2023-01-26T02:32:41.026Z,638.00
2023-01-26T02:33:41.078Z,636.00
2023-01-26T02:34:41.076Z,641.00
2023-01-26T02:35:41.115Z,643.00
2023-01-26T02:36:41.096Z,639.00
2023-01-26T02:37:41.117Z,641.00
2023-01-26T02:38:41.121Z,645.00
2023-01-26T02:39:41.182Z,642.00
2023-01-26T02:40:41.159Z,645.00
2023-01-26T02:41:41.229Z,647.00
2023-01-26T02:42:41.223Z,642.00
2023-01-26T02:43:41.219Z,643.00
2023-01-26T02:44:41.265Z,647.00
2023-01-26T02:45:41.243Z,651.00
2023-01-26T02:53:41.290Z,649.00
2023-01-26T02:54:41.293Z,652.00
2023-01-26T02:55:41.337Z,649.00
2023-01-26T02:56:41.315Z,654.00
2023-01-26T02:57:41.319Z,647.00
2023-01-26T02:58:41.340Z,652.00
2023-01-26T02:59:41.393Z,649.00
2023-01-26T03:00:41.379Z,655.00
2023-01-26T03:01:41.387Z,650.00
2023-01-26T03:02:41.354Z,655.00
2023-01-26T03:03:41.383Z,660.00
2023-01-26T03:04:41.364Z,649.00
2023-01-26T03:05:41.384Z,649.00
2023-01-26T03:06:41.348Z,655.00
2023-01-26T03:07:41.390Z,656.00
2023-01-26T03:08:41.389Z,654.00
2023-01-26T03:09:41.392Z,653.00
2023-01-26T03:10:41.401Z,655.00
2023-01-26T03:11:41.416Z,657.00
2023-01-26T03:12:41.556Z,655.00
2023-01-26T03:13:41.394Z,656.00
2023-01-26T03:14:41.438Z,656.00
2023-01-26T03:16:41.427Z,662.00
2023-01-26T03:17:41.431Z,656.00
2023-01-26T03:18:41.433Z,654.00
2023-01-26T03:19:41.431Z,664.00
2023-01-26T03:20:41.427Z,654.00
2023-01-26T03:21:41.428Z,655.00
2023-01-26T03:22:41.488Z,660.00
2023-01-26T03:23:41.466Z,656.00
2023-01-26T03:44:42.082Z,678.00
2023-01-26T03:45:42.162Z,664.00
2023-01-26T03:46:42.261Z,666.00
2023-01-26T03:47:42.242Z,672.00
2023-01-26T03:48:42.310Z,696.00
2023-01-26T03:49:42.379Z,665.00
2023-01-26T03:50:42.433Z,689.00
2023-01-26T03:51:42.446Z,665.00
2023-01-26T03:52:42.547Z,675.00
2023-01-26T03:53:42.571Z,673.00
2023-01-26T03:54:42.640Z,684.00
2023-01-26T03:55:42.685Z,688.00
2023-01-26T03:56:42.699Z,666.00
2023-01-26T03:57:42.857Z,676.00
2023-01-26T03:58:42.858Z,670.00
2023-01-26T03:59:42.911Z,696.00
2023-01-26T04:00:42.972Z,676.00
2023-01-26T04:01:43.024Z,697.00
2023-01-26T04:02:43.058Z,686.00
2023-01-26T04:03:43.152Z,689.00
2023-01-26T04:04:43.167Z,697.00
2023-01-26T04:05:43.264Z,709.00
2023-01-26T04:06:43.326Z,679.00
2023-01-26T04:07:43.358Z,678.00
2023-01-26T04:08:43.447Z,677.00
2023-01-26T04:09:43.486Z,687.00
2023-01-26T04:10:43.496Z,687.00
2023-01-26T04:11:43.611Z,700.00
2023-01-26T04:12:43.603Z,693.00
2023-01-26T04:13:43.660Z,692.00
2023-01-26T04:14:50.494Z,694.00
2023-01-26T04:15:44.728Z,694.00
2023-01-26T04:16:43.740Z,679.00
2023-01-26T04:17:43.696Z,691.00
2023-01-26T04:18:43.707Z,705.00
2023-01-26T04:19:43.756Z,687.00
2023-01-26T04:20:43.813Z,691.00
2023-01-26T04:21:43.885Z,697.00
2023-01-26T04:22:43.946Z,697.00
2023-01-26T04:23:43.967Z,708.00
2023-01-26T04:24:44.052Z,694.00
2023-01-26T04:25:44.105Z,712.00
2023-01-26T04:26:44.214Z,709.00
2023-01-26T04:27:44.231Z,697.00
2023-01-26T04:28:44.276Z,716.00
2023-01-26T04:29:44.349Z,708.00
2023-01-26T04:30:44.440Z,708.00
2023-01-26T04:31:44.522Z,690.00
2023-01-26T04:32:44.471Z,684.00
2023-01-26T04:33:44.529Z,684.00
2023-01-26T04:34:44.572Z,703.00
2023-01-26T04:35:44.669Z,701.00
2023-01-26T04:36:44.694Z,697.00
2023-01-26T04:37:44.769Z,704.00
2023-01-26T04:38:44.831Z,696.00
2023-01-26T04:39:44.864Z,698.00
2023-01-26T04:40:44.928Z,708.00
2023-01-26T04:41:44.982Z,697.00
2023-01-26T04:42:45.038Z,689.00
2023-01-26T04:43:45.103Z,692.00
2023-01-26T04:44:45.148Z,695.00
2023-01-26T04:45:45.218Z,679.00
2023-01-26T04:46:45.280Z,703.00
2023-01-26T04:47:45.340Z,677.00
2023-01-26T04:48:45.393Z,685.00
2023-01-26T04:49:45.393Z,687.00
2023-01-26T04:50:45.464Z,697.00
2023-01-26T04:51:45.498Z,707.00
2023-01-26T04:52:45.531Z,685.00
2023-01-26T04:53:45.527Z,707.00
2023-01-26T04:54:45.576Z,695.00
2023-01-26T04:55:45.571Z,699.00
2023-01-26T04:56:45.584Z,692.00
2023-01-26T04:57:45.626Z,685.00
2023-01-26T04:58:45.603Z,700.00
2023-01-26T04:59:45.622Z,674.00
2023-01-26T05:00:45.689Z,682.00
2023-01-26T05:01:45.632Z,689.00
2023-01-26T05:02:45.648Z,692.00
2023-01-26T05:03:45.596Z,670.00
2023-01-26T05:04:45.637Z,681.00
2023-01-26T05:05:45.613Z,691.00
2023-01-26T05:06:45.633Z,697.00
2023-01-26T05:07:45.622Z,685.00
2023-01-26T05:08:45.649Z,670.00
2023-01-26T05:09:45.677Z,687.00
2023-01-26T05:10:45.671Z,676.00
2023-01-26T05:11:45.670Z,689.00
2023-01-26T05:12:45.683Z,685.00
2023-01-26T05:13:45.667Z,680.00
2023-01-26T05:14:45.664Z,699.00
2023-01-26T05:15:45.677Z,691.00
2023-01-26T05:16:45.680Z,690.00
2023-01-26T05:17:45.699Z,691.00
2023-01-26T05:18:45.709Z,692.00
2023-01-26T05:19:45.687Z,709.00
2023-01-26T05:20:45.687Z,701.00
2023-01-26T05:21:45.726Z,703.00
2023-01-26T05:22:45.706Z,684.00
2023-01-26T05:23:45.747Z,688.00
2023-01-26T05:24:46.608Z,689.00
2023-01-26T05:25:45.723Z,688.00
2023-01-26T05:26:45.734Z,677.00
2023-01-26T05:27:45.764Z,675.00
2023-01-26T05:28:45.742Z,669.00
2023-01-26T05:29:45.763Z,670.00
2023-01-26T05:30:45.824Z,685.00
2023-01-26T05:31:45.857Z,683.00
2023-01-26T05:32:45.766Z,671.00
2023-01-26T05:33:45.811Z,670.00
2023-01-26T05:34:45.830Z,694.00
2023-01-26T05:35:45.821Z,697.00
2023-01-26T05:36:45.820Z,714.00
2023-01-26T05:37:45.843Z,696.00
2023-01-26T05:38:45.884Z,698.00
2023-01-26T05:39:45.868Z,686.00
2023-01-26T05:40:45.859Z,699.00
2023-01-26T05:41:45.859Z,691.00
2023-01-26T05:42:45.901Z,685.00
2023-01-26T05:43:45.905Z,690.00
2023-01-26T05:44:45.897Z,695.00
2023-01-26T05:45:45.968Z,716.00
2023-01-26T05:46:45.939Z,708.00
2023-01-26T05:47:45.964Z,713.00
2023-01-26T05:48:45.965Z,697.00
2023-01-26T05:49:45.976Z,703.00
2023-01-26T05:50:45.987Z,703.00
2023-01-26T05:51:46.014Z,708.00
2023-01-26T05:52:46.055Z,695.00
2023-01-26T05:53:46.010Z,703.00
2023-01-26T05:54:46.013Z,709.00
2023-01-26T05:55:46.082Z,697.00
2023-01-26T05:56:46.095Z,699.00
2023-01-26T05:57:46.085Z,690.00
2023-01-26T05:58:46.099Z,707.00
2023-01-26T05:59:46.118Z,709.00
2023-01-26T06:00:53.203Z,688.00
2023-01-26T06:01:46.120Z,690.00
2023-01-26T06:02:48.506Z,691.00
2023-01-26T06:03:46.117Z,698.00
2023-01-26T06:04:46.123Z,702.00
2023-01-26T06:05:46.067Z,703.00
2023-01-26T06:06:46.066Z,731.00
2023-01-26T06:07:46.082Z,699.00
2023-01-26T06:08:46.088Z,710.00
2023-01-26T06:09:46.058Z,702.00
2023-01-26T06:10:46.050Z,711.00
2023-01-26T06:11:46.053Z,721.00
2023-01-26T06:12:46.078Z,720.00
2023-01-26T06:13:46.025Z,704.00
2023-01-26T06:14:47.331Z,712.00
2023-01-26T06:15:46.039Z,726.00
2023-01-26T06:16:46.054Z,714.00
2023-01-26T06:17:45.996Z,719.00
2023-01-26T06:18:46.049Z,713.00
2023-01-26T06:19:46.014Z,720.00
2023-01-26T06:20:45.970Z,715.00
2023-01-26T06:21:46.061Z,698.00
2023-01-26T06:22:45.991Z,731.00
2023-01-26T06:23:45.990Z,718.00
2023-01-26T06:24:45.967Z,714.00
2023-01-26T06:25:45.953Z,718.00
2023-01-26T06:26:45.954Z,707.00
2023-01-26T06:27:45.918Z,712.00
2023-01-26T06:28:45.920Z,729.00
2023-01-26T06:29:45.935Z,722.00
2023-01-26T06:30:46.021Z,729.00
2023-01-26T06:31:45.978Z,720.00
2023-01-26T06:33:46.231Z,705.00
2023-01-26T06:34:45.937Z,701.00
2023-01-26T06:35:45.860Z,703.00
2023-01-26T06:36:45.864Z,700.00
2023-01-26T06:37:45.872Z,697.00
2023-01-26T06:38:46.221Z,702.00
2023-01-26T06:39:45.840Z,727.00
2023-01-26T06:40:45.842Z,734.00
2023-01-26T06:41:45.877Z,742.00
2023-01-26T06:42:45.829Z,708.00
2023-01-26T06:43:45.796Z,734.00
2023-01-26T06:44:45.800Z,710.00
2023-01-26T06:45:52.912Z,702.00
2023-01-26T06:47:45.756Z,709.00
2023-01-26T06:48:46.221Z,716.00
2023-01-26T06:49:45.750Z,730.00
2023-01-26T06:50:45.757Z,741.00
2023-01-26T06:51:45.780Z,736.00
2023-01-26T06:52:45.789Z,754.00
2023-01-26T06:53:45.797Z,748.00
2023-01-26T06:54:45.719Z,727.00
2023-01-26T06:55:45.752Z,744.00
2023-01-26T06:56:45.763Z,735.00
2023-01-26T06:57:45.730Z,722.00
2023-01-26T06:58:45.733Z,725.00
2023-01-26T06:59:45.716Z,740.00
2023-01-26T07:00:45.716Z,750.00
2023-01-26T07:01:45.696Z,750.00
2023-01-26T07:02:45.794Z,736.00
2023-01-26T07:03:45.710Z,759.00
2023-01-26T07:04:45.656Z,748.00
2023-01-26T07:05:45.662Z,748.00
2023-01-26T07:06:45.687Z,758.00
2023-01-26T07:07:45.675Z,748.00
2023-01-26T07:08:45.732Z,746.00
2023-01-26T07:09:45.651Z,767.00
2023-01-26T07:10:45.649Z,769.00
2023-01-26T07:11:45.686Z,764.00
2023-01-26T07:12:45.647Z,758.00
2023-01-26T07:13:45.708Z,756.00
2023-01-26T07:14:45.623Z,751.00
2023-01-26T07:15:45.633Z,768.00
2023-01-26T07:16:45.634Z,770.00
2023-01-26T07:17:45.605Z,771.00
2023-01-26T07:18:45.607Z,761.00
2023-01-26T07:19:45.565Z,752.00
2023-01-26T07:20:45.592Z,768.00
2023-01-26T07:21:45.581Z,756.00
2023-01-26T07:22:45.597Z,767.00
2023-01-26T07:23:45.595Z,764.00
2023-01-26T07:24:45.530Z,751.00
2023-01-26T07:25:45.548Z,774.00
2023-01-26T07:26:45.576Z,756.00
2023-01-26T07:27:45.521Z,759.00
2023-01-26T07:28:45.601Z,748.00
2023-01-26T07:29:45.536Z,776.00
2023-01-26T07:30:45.554Z,783.00
2023-01-26T07:31:45.676Z,773.00
2023-01-26T07:32:45.491Z,773.00
2023-01-26T07:33:45.517Z,767.00
2023-01-26T07:34:45.527Z,751.00
2023-01-26T07:35:45.527Z,767.00
2023-01-26T07:37:45.476Z,778.00
2023-01-26T07:38:45.481Z,772.00
2023-01-26T07:39:46.277Z,788.00
2023-01-26T07:40:45.518Z,772.00
2023-01-26T07:41:45.451Z,775.00
2023-01-26T07:42:45.423Z,782.00
2023-01-26T07:43:45.641Z,763.00
2023-01-26T07:44:45.432Z,749.00
2023-01-26T07:45:45.452Z,762.00
2023-01-26T07:46:45.729Z,776.00
2023-01-26T07:47:45.398Z,791.00
2023-01-26T07:48:45.393Z,783.00
2023-01-26T07:49:45.424Z,757.00
2023-01-26T07:50:45.421Z,772.00
2023-01-26T07:51:45.387Z,786.00
2023-01-26T07:52:45.396Z,790.00
2023-01-26T07:53:45.388Z,787.00
2023-01-26T07:54:45.395Z,789.00
2023-01-26T07:55:45.333Z,781.00
2023-01-26T07:56:45.351Z,775.00
2023-01-26T07:57:45.319Z,774.00
2023-01-26T08:21:45.184Z,778.00
2023-01-26T08:22:45.173Z,789.00
2023-01-26T08:23:45.137Z,786.00
2023-01-26T08:24:45.201Z,766.00
2023-01-26T08:25:45.154Z,790.00
2023-01-26T08:26:45.140Z,789.00
2023-01-26T08:27:45.166Z,787.00
2023-01-26T08:28:45.159Z,778.00
2023-01-26T08:29:45.100Z,784.00
2023-01-26T08:30:45.129Z,801.00
2023-01-26T08:31:45.191Z,791.00
2023-01-26T08:32:45.084Z,779.00
2023-01-26T08:33:45.080Z,797.00
2023-01-26T08:34:45.101Z,786.00
2023-01-26T08:35:45.079Z,782.00
2023-01-26T08:36:45.753Z,792.00
2023-01-26T08:37:45.037Z,804.00
2023-01-26T08:38:45.089Z,788.00
2023-01-26T08:39:45.095Z,798.00
2023-01-26T08:40:45.123Z,782.00
2023-01-26T08:41:45.035Z,779.00
2023-01-26T08:42:45.073Z,787.00
2023-01-26T08:43:45.013Z,810.00
2023-01-26T08:44:45.013Z,800.00
2023-01-26T08:45:45.087Z,801.00
2023-01-26T08:48:03.502Z,500.00
2023-01-26T08:49:03.552Z,500.00
2023-01-26T08:51:03.563Z,500.00
2023-01-26T08:52:03.598Z,500.00
2023-01-26T08:55:03.627Z,509.00
2023-01-26T08:56:03.562Z,502.00
2023-01-26T08:57:03.570Z,501.00
2023-01-26T08:58:03.590Z,511.00
2023-01-26T08:59:03.572Z,505.00
2023-01-26T09:00:03.713Z,501.00
2023-01-26T09:01:03.636Z,504.00
2023-01-26T09:02:03.687Z,501.00
2023-01-26T09:03:03.776Z,505.00
2023-01-26T09:04:03.593Z,508.00
2023-01-26T09:05:03.597Z,508.00
2023-01-26T09:06:03.581Z,513.00
2023-01-26T09:07:03.594Z,509.00
2023-01-26T09:08:03.549Z,511.00
2023-01-26T09:09:03.557Z,513.00
2023-01-26T09:10:03.588Z,513.00
2023-01-26T09:11:03.529Z,500.00
2023-01-26T09:12:03.569Z,513.00
2023-01-26T09:13:03.586Z,513.00
2023-01-26T09:14:03.688Z,512.00
2023-01-26T09:15:03.539Z,505.00
2023-01-26T09:16:03.521Z,512.00
2023-01-26T09:17:03.573Z,507.00
2023-01-26T09:18:03.562Z,517.00
2023-01-26T09:19:03.579Z,512.00
2023-01-26T09:20:03.541Z,520.00
2023-01-26T09:21:03.529Z,514.00
2023-01-26T09:22:03.632Z,516.00
2023-01-26T09:23:03.547Z,511.00
2023-01-26T09:24:03.544Z,508.00
2023-01-26T09:25:03.582Z,506.00
2023-01-26T09:26:03.515Z,517.00
2023-01-26T09:27:03.536Z,526.00
2023-01-26T09:28:05.542Z,511.00
2023-01-26T09:29:03.543Z,515.00
2023-01-26T09:30:03.653Z,512.00
2023-01-26T09:31:03.625Z,514.00
2023-01-26T09:32:03.587Z,518.00
2023-01-26T09:33:03.510Z,508.00
2023-01-26T09:34:03.551Z,515.00
2023-01-26T09:35:03.557Z,516.00
2023-01-26T09:36:03.535Z,518.00
2023-01-26T09:37:03.541Z,520.00
2023-01-26T09:38:03.668Z,515.00
2023-01-26T09:39:03.558Z,517.00
2023-01-26T09:40:03.583Z,520.00
2023-01-26T09:41:03.565Z,526.00
2023-01-26T09:42:03.532Z,528.00
2023-01-26T09:43:03.584Z,518.00
2023-01-26T09:44:03.541Z,522.00
2023-01-26T09:45:03.548Z,531.00
2023-01-26T09:46:03.557Z,520.00
2023-01-26T09:47:03.573Z,533.00
2023-01-26T09:48:03.523Z,520.00
2023-01-26T09:49:03.525Z,517.00
2023-01-26T09:50:03.570Z,521.00
2023-01-26T09:51:03.795Z,521.00
2023-01-26T09:52:03.502Z,528.00
2023-01-26T09:53:03.544Z,525.00
2023-01-26T09:54:03.552Z,525.00
2023-01-26T09:55:03.525Z,516.00
2023-01-26T09:56:03.729Z,525.00
2023-01-26T09:57:03.673Z,515.00
2023-01-26T09:58:03.539Z,513.00
2023-01-26T09:59:03.590Z,534.00
2023-01-26T10:00:03.561Z,525.00
2023-01-26T10:01:03.524Z,527.00
2023-01-26T10:02:03.504Z,526.00
2023-01-26T10:03:03.549Z,516.00
2023-01-26T10:04:03.519Z,521.00
2023-01-26T10:05:03.616Z,523.00
2023-01-26T10:06:03.489Z,533.00
2023-01-26T10:07:03.574Z,525.00
2023-01-26T10:08:03.496Z,527.00
2023-01-26T10:09:03.548Z,531.00
2023-01-26T10:10:03.533Z,524.00
2023-01-26T10:11:03.549Z,526.00
2023-01-26T10:12:03.521Z,524.00
2023-01-26T10:13:03.527Z,527.00
2023-01-26T10:14:03.519Z,523.00
2023-01-26T10:15:03.557Z,523.00
2023-01-26T10:16:03.825Z,527.00
2023-01-26T10:17:03.499Z,525.00
2023-01-26T10:18:03.513Z,525.00
2023-01-26T10:19:03.503Z,532.00
2023-01-26T10:20:03.565Z,532.00
2023-01-26T10:21:03.583Z,528.00
2023-01-26T10:22:03.609Z,514.00
2023-01-26T10:23:03.598Z,520.00
2023-01-26T10:24:03.631Z,528.00
2023-01-26T10:25:03.634Z,526.00
2023-01-26T10:26:03.634Z,527.00
2023-01-26T10:27:03.643Z,533.00
2023-01-26T10:28:03.641Z,526.00
2023-01-26T10:29:03.686Z,523.00
2023-01-26T10:30:03.659Z,533.00
2023-01-26T10:31:03.843Z,521.00
2023-01-26T10:32:03.671Z,521.00
2023-01-26T10:33:03.702Z,539.00
2023-01-26T10:34:03.673Z,533.00
2023-01-26T10:35:03.694Z,525.00
2023-01-26T10:36:03.828Z,527.00
2023-01-26T10:37:03.677Z,528.00
2023-01-26T10:38:03.666Z,527.00
2023-01-26T10:39:03.720Z,523.00
2023-01-26T10:40:03.747Z,522.00
2023-01-26T10:41:03.877Z,534.00
2023-01-26T10:42:03.810Z,530.00
2023-01-26T10:43:03.737Z,539.00
2023-01-26T10:44:03.764Z,528.00
2023-01-26T10:45:03.783Z,516.00
2023-01-26T10:46:03.948Z,525.00
2023-01-26T10:47:04.323Z,519.00
2023-01-26T10:48:03.835Z,528.00
2023-01-26T10:49:03.829Z,533.00
2023-01-26T10:50:03.839Z,523.00
2023-01-26T10:51:03.845Z,524.00
2023-01-26T10:52:03.869Z,527.00
2023-01-26T10:53:03.878Z,528.00
2023-01-26T10:54:03.890Z,528.00
2023-01-26T10:55:03.889Z,526.00
2023-01-26T10:56:04.297Z,528.00
2023-01-26T10:57:03.902Z,531.00
2023-01-26T10:58:03.917Z,526.00
2023-01-26T10:59:03.849Z,522.00
2023-01-26T11:00:03.883Z,531.00
2023-01-26T11:01:03.909Z,528.00
2023-01-26T11:02:03.871Z,530.00
2023-01-26T11:03:03.845Z,531.00
2023-01-26T11:04:03.884Z,535.00
2023-01-26T11:05:03.859Z,523.00
2023-01-26T11:06:03.852Z,529.00
2023-01-26T11:07:03.934Z,534.00
2023-01-26T11:08:03.872Z,538.00
2023-01-26T11:09:03.863Z,532.00
2023-01-26T11:10:03.884Z,533.00
2023-01-26T11:11:03.894Z,534.00
2023-01-26T11:12:04.334Z,533.00
2023-01-26T11:13:03.905Z,534.00
2023-01-26T11:14:03.866Z,531.00
2023-01-26T11:15:03.946Z,536.00
2023-01-26T11:16:04.076Z,526.00
2023-01-26T11:17:03.899Z,533.00
2023-01-26T11:18:03.944Z,532.00
2023-01-26T11:19:03.918Z,534.00
2023-01-26T11:20:03.951Z,532.00
2023-01-26T11:21:03.932Z,530.00
2023-01-26T11:22:04.272Z,533.00
2023-01-26T11:23:04.018Z,542.00
2023-01-26T11:24:03.997Z,533.00
2023-01-26T11:25:03.987Z,529.00
2023-01-26T11:26:03.974Z,530.00
2023-01-26T11:27:05.027Z,531.00
2023-01-26T11:28:04.011Z,532.00
2023-01-26T11:29:03.954Z,534.00
2023-01-26T11:30:03.913Z,534.00
2023-01-26T11:31:04.011Z,533.00
2023-01-26T11:33:03.936Z,546.00
2023-01-26T11:34:03.946Z,544.00
2023-01-26T11:35:03.994Z,534.00
2023-01-26T11:36:03.961Z,539.00
2023-01-26T11:37:04.269Z,531.00
2023-01-26T11:38:03.880Z,539.00
2023-01-26T11:39:03.873Z,538.00
2023-01-26T11:40:03.893Z,535.00
2023-01-26T11:41:03.878Z,535.00
2023-01-26T11:42:04.238Z,532.00
2023-01-26T11:43:03.876Z,537.00
2023-01-26T11:44:03.851Z,540.00
2023-01-26T11:45:03.827Z,536.00
2023-01-26T11:46:03.906Z,533.00
2023-01-26T11:47:03.868Z,540.00
2023-01-26T11:48:03.851Z,541.00
2023-01-26T11:49:03.827Z,539.00
2023-01-26T11:50:03.821Z,539.00
2023-01-26T11:51:05.651Z,538.00
2023-01-26T11:52:03.808Z,536.00
2023-01-26T11:53:03.770Z,535.00
2023-01-26T11:54:03.786Z,536.00
2023-01-26T11:55:03.790Z,531.00
2023-01-26T11:56:03.795Z,539.00
2023-01-26T11:57:03.806Z,536.00
2023-01-26T11:58:03.769Z,543.00
2023-01-26T11:59:03.787Z,542.00
2023-01-26T12:00:03.809Z,542.00
2023-01-26T12:01:03.760Z,539.00
2023-01-26T12:02:04.342Z,541.00
2023-01-26T12:03:03.771Z,539.00
2023-01-26T12:04:03.729Z,545.00
2023-01-26T12:05:03.713Z,544.00
2023-01-26T12:06:03.721Z,542.00
2023-01-26T12:07:03.754Z,542.00
2023-01-26T12:08:03.740Z,533.00
2023-01-26T12:09:03.692Z,537.00
2023-01-26T12:10:03.721Z,540.00
2023-01-26T12:11:03.671Z,542.00
2023-01-26T12:12:03.663Z,535.00
2023-01-26T12:13:03.667Z,533.00
2023-01-26T12:14:03.678Z,535.00
2023-01-26T12:15:05.871Z,539.00
2023-01-26T12:17:17.233Z,545.00
2023-01-26T12:18:04.671Z,545.00
2023-01-26T12:19:11.115Z,544.00
2023-01-26T12:20:04.694Z,545.00
2023-01-26T12:21:03.610Z,543.00
2023-01-26T12:22:03.655Z,539.00
2023-01-26T12:23:03.604Z,544.00
2023-01-26T12:24:03.740Z,548.00
2023-01-26T12:25:20.201Z,545.00
2023-01-26T12:26:04.593Z,545.00
2023-01-26T12:27:03.611Z,546.00
2023-01-26T12:28:03.577Z,546.00
2023-01-26T12:29:03.577Z,545.00
2023-01-26T12:30:03.678Z,545.00
2023-01-26T12:31:03.668Z,539.00
2023-01-26T12:32:03.821Z,547.00
2023-01-26T12:33:03.628Z,538.00
2023-01-26T12:34:03.937Z,542.00
2023-01-26T12:35:03.618Z,542.00
2023-01-26T12:36:03.611Z,537.00
2023-01-26T12:37:03.822Z,544.00
2023-01-26T12:38:17.266Z,541.00
2023-01-26T12:39:04.558Z,542.00
2023-01-26T12:40:03.544Z,539.00
2023-01-26T12:41:03.550Z,542.00
2023-01-26T12:42:03.508Z,545.00
2023-01-26T12:43:03.817Z,541.00
2023-01-26T12:44:03.505Z,543.00
2023-01-26T12:45:03.529Z,546.00
2023-01-26T12:46:03.512Z,543.00
2023-01-26T12:47:03.492Z,539.00
2023-01-26T12:48:03.464Z,548.00
2023-01-26T12:49:03.461Z,541.00
2023-01-26T12:50:03.510Z,537.00
2023-01-26T12:51:03.462Z,545.00
2023-01-26T12:52:03.476Z,544.00
2023-01-26T12:53:03.504Z,536.00
2023-01-26T12:54:03.429Z,543.00
2023-01-26T12:55:03.430Z,539.00
2023-01-26T12:56:03.420Z,538.00
2023-01-26T12:57:03.461Z,544.00
2023-01-26T12:58:03.388Z,545.00
2023-01-26T12:59:03.413Z,540.00
2023-01-26T13:00:03.383Z,541.00
2023-01-26T13:01:03.450Z,542.00
2023-01-26T13:02:03.369Z,542.00
2023-01-26T13:03:03.379Z,544.00
2023-01-26T13:04:03.316Z,544.00
2023-01-26T13:05:03.320Z,543.00
2023-01-26T13:06:03.352Z,547.00
2023-01-26T13:07:03.303Z,546.00
2023-01-26T13:08:03.314Z,548.00
2023-01-26T13:09:03.327Z,548.00
2023-01-26T13:10:03.331Z,546.00
2023-01-26T13:11:03.268Z,540.00
2023-01-26T13:12:03.273Z,553.00
2023-01-26T13:13:03.293Z,553.00
2023-01-26T13:14:03.318Z,543.00
2023-01-26T13:15:06.148Z,542.00
2023-01-26T13:16:03.347Z,549.00
2023-01-26T13:17:03.275Z,546.00
2023-01-26T13:18:03.320Z,546.00
2023-01-26T13:19:03.228Z,544.00
2023-01-26T13:20:03.235Z,542.00
2023-01-26T13:21:03.203Z,540.00
2023-01-26T13:22:03.247Z,550.00
2023-01-26T13:23:03.221Z,549.00
2023-01-26T13:24:03.209Z,547.00
2023-01-26T13:25:03.238Z,547.00
2023-01-26T13:26:09.936Z,553.00
2023-01-26T13:27:04.159Z,553.00
2023-01-26T13:28:03.195Z,553.00
2023-01-26T13:29:03.201Z,555.00